sensor_id;sensor_type;location;lat;lon;timestamp;P1;durP1;ratioP1;P2;durP2;ratioP2
62006;SDS011;47963;53.008;6.754;2022-07-24T00:00:23;9.25;;;5.22;;
62006;SDS011;47963;53.008;6.754;2022-07-24T00:02:49;8.35;;;5.18;;
62006;SDS011;47963;53.008;6.754;2022-07-24T00:05:15;9.55;;;5.13;;
62006;SDS011;47963;53.008;6.754;2022-07-24T00:07:41;12.18;;;5.55;;
62006;SDS011;47963;53.008;6.754;2022-07-24T00:10:06;9.75;;;5.25;;
62006;SDS011;47963;53.008;6.754;2022-07-24T00:12:33;9.48;;;5.25;;
62006;SDS011;47963;53.008;6.754;2022-07-24T00:14:59;9.15;;;5.57;;
62006;SDS011;47963;53.008;6.754;2022-07-24T00:17:24;9.32;;;5.25;;
62006;SDS011;47963;53.008;6.754;2022-07-24T00:19:50;9.40;;;5.80;;
62006;SDS011;47963;53.008;6.754;2022-07-24T00:22:16;8.80;;;5.70;;
62006;SDS011;47963;53.008;6.754;2022-07-24T00:24:41;8.38;;;5.50;;
62006;SDS011;47963;53.008;6.754;2022-07-24T00:27:07;8.25;;;5.28;;
62006;SDS011;47963;53.008;6.754;2022-07-24T00:29:32;9.43;;;5.80;;
62006;SDS011;47963;53.008;6.754;2022-07-24T00:31:58;9.73;;;6.10;;
62006;SDS011;47963;53.008;6.754;2022-07-24T00:34:24;10.07;;;5.72;;
62006;SDS011;47963;53.008;6.754;2022-07-24T00:36:49;8.95;;;6.05;;
62006;SDS011;47963;53.008;6.754;2022-07-24T00:39:15;9.23;;;5.80;;
62006;SDS011;47963;53.008;6.754;2022-07-24T00:41:41;8.60;;;5.80;;
62006;SDS011;47963;53.008;6.754;2022-07-24T00:44:08;10.32;;;6.05;;
62006;SDS011;47963;53.008;6.754;2022-07-24T00:46:36;8.45;;;6.25;;
62006;SDS011;47963;53.008;6.754;2022-07-24T00:49:04;9.38;;;6.43;;
62006;SDS011;47963;53.008;6.754;2022-07-24T00:51:31;10.85;;;6.68;;
62006;SDS011;47963;53.008;6.754;2022-07-24T00:53:58;9.23;;;6.43;;
62006;SDS011;47963;53.008;6.754;2022-07-24T00:56:25;10.50;;;6.68;;
62006;SDS011;47963;53.008;6.754;2022-07-24T00:58:50;11.57;;;6.63;;
62006;SDS011;47963;53.008;6.754;2022-07-24T01:01:16;9.85;;;6.78;;
62006;SDS011;47963;53.008;6.754;2022-07-24T01:03:43;10.13;;;6.70;;
62006;SDS011;47963;53.008;6.754;2022-07-24T01:06:10;9.43;;;6.40;;
62006;SDS011;47963;53.008;6.754;2022-07-24T01:08:36;9.77;;;6.95;;
62006;SDS011;47963;53.008;6.754;2022-07-24T01:11:02;13.30;;;7.22;;
62006;SDS011;47963;53.008;6.754;2022-07-24T01:13:29;10.48;;;6.78;;
62006;SDS011;47963;53.008;6.754;2022-07-24T01:15:56;9.38;;;6.78;;
62006;SDS011;47963;53.008;6.754;2022-07-24T01:18:22;9.90;;;6.80;;
62006;SDS011;47963;53.008;6.754;2022-07-24T01:20:48;10.30;;;7.15;;
62006;SDS011;47963;53.008;6.754;2022-07-24T01:23:14;10.43;;;6.57;;
62006;SDS011;47963;53.008;6.754;2022-07-24T01:25:40;10.57;;;7.00;;
62006;SDS011;47963;53.008;6.754;2022-07-24T01:28:07;9.85;;;6.22;;
62006;SDS011;47963;53.008;6.754;2022-07-24T01:30:32;10.30;;;6.68;;
62006;SDS011;47963;53.008;6.754;2022-07-24T01:32:58;9.82;;;7.00;;
62006;SDS011;47963;53.008;6.754;2022-07-24T01:35:24;10.95;;;6.80;;
62006;SDS011;47963;53.008;6.754;2022-07-24T01:37:51;10.75;;;6.78;;
62006;SDS011;47963;53.008;6.754;2022-07-24T01:40:18;10.52;;;6.60;;
62006;SDS011;47963;53.008;6.754;2022-07-24T01:42:44;12.63;;;6.90;;
62006;SDS011;47963;53.008;6.754;2022-07-24T01:45:09;9.85;;;6.43;;
62006;SDS011;47963;53.008;6.754;2022-07-24T01:47:36;10.02;;;6.30;;
62006;SDS011;47963;53.008;6.754;2022-07-24T01:50:01;10.27;;;6.45;;
62006;SDS011;47963;53.008;6.754;2022-07-24T01:52:27;10.05;;;6.80;;
62006;SDS011;47963;53.008;6.754;2022-07-24T01:54:53;9.57;;;6.10;;
62006;SDS011;47963;53.008;6.754;2022-07-24T01:57:19;12.02;;;6.88;;
62006;SDS011;47963;53.008;6.754;2022-07-24T01:59:45;11.50;;;6.82;;
62006;SDS011;47963;53.008;6.754;2022-07-24T02:02:11;9.75;;;6.50;;
62006;SDS011;47963;53.008;6.754;2022-07-24T02:04:36;10.23;;;6.60;;
62006;SDS011;47963;53.008;6.754;2022-07-24T02:07:03;10.02;;;6.18;;
62006;SDS011;47963;53.008;6.754;2022-07-24T02:09:29;8.68;;;6.68;;
62006;SDS011;47963;53.008;6.754;2022-07-24T02:11:55;10.00;;;6.60;;
62006;SDS011;47963;53.008;6.754;2022-07-24T02:14:20;10.20;;;6.90;;
62006;SDS011;47963;53.008;6.754;2022-07-24T02:16:46;10.48;;;6.65;;
62006;SDS011;47963;53.008;6.754;2022-07-24T02:19:12;10.23;;;6.45;;
62006;SDS011;47963;53.008;6.754;2022-07-24T02:21:38;10.93;;;6.70;;
62006;SDS011;47963;53.008;6.754;2022-07-24T02:24:03;10.85;;;6.85;;
62006;SDS011;47963;53.008;6.754;2022-07-24T02:26:29;9.88;;;6.40;;
62006;SDS011;47963;53.008;6.754;2022-07-24T02:28:55;9.48;;;6.15;;
62006;SDS011;47963;53.008;6.754;2022-07-24T02:31:21;10.82;;;6.60;;
62006;SDS011;47963;53.008;6.754;2022-07-24T02:33:46;10.73;;;6.40;;
62006;SDS011;47963;53.008;6.754;2022-07-24T02:36:12;10.30;;;6.30;;
62006;SDS011;47963;53.008;6.754;2022-07-24T02:38:38;10.63;;;6.50;;
62006;SDS011;47963;53.008;6.754;2022-07-24T02:41:05;9.32;;;6.28;;
62006;SDS011;47963;53.008;6.754;2022-07-24T02:43:31;9.38;;;6.35;;
62006;SDS011;47963;53.008;6.754;2022-07-24T02:45:57;9.60;;;6.43;;
62006;SDS011;47963;53.008;6.754;2022-07-24T02:48:23;10.27;;;7.43;;
62006;SDS011;47963;53.008;6.754;2022-07-24T02:50:49;10.02;;;6.85;;
62006;SDS011;47963;53.008;6.754;2022-07-24T02:53:14;10.43;;;6.75;;
62006;SDS011;47963;53.008;6.754;2022-07-24T02:55:40;11.35;;;6.88;;
62006;SDS011;47963;53.008;6.754;2022-07-24T02:58:06;10.73;;;7.20;;
62006;SDS011;47963;53.008;6.754;2022-07-24T03:00:31;10.13;;;6.93;;
62006;SDS011;47963;53.008;6.754;2022-07-24T03:02:57;11.63;;;6.90;;
62006;SDS011;47963;53.008;6.754;2022-07-24T03:05:23;10.55;;;7.13;;
62006;SDS011;47963;53.008;6.754;2022-07-24T03:07:48;11.13;;;7.38;;
62006;SDS011;47963;53.008;6.754;2022-07-24T03:10:14;10.50;;;6.72;;
62006;SDS011;47963;53.008;6.754;2022-07-24T03:12:40;9.88;;;7.05;;
62006;SDS011;47963;53.008;6.754;2022-07-24T03:15:07;10.93;;;7.20;;
62006;SDS011;47963;53.008;6.754;2022-07-24T03:17:33;11.27;;;7.57;;
62006;SDS011;47963;53.008;6.754;2022-07-24T03:19:59;11.90;;;7.40;;
62006;SDS011;47963;53.008;6.754;2022-07-24T03:22:25;10.50;;;7.70;;
62006;SDS011;47963;53.008;6.754;2022-07-24T03:24:50;10.25;;;7.50;;
62006;SDS011;47963;53.008;6.754;2022-07-24T03:27:16;12.38;;;8.15;;
62006;SDS011;47963;53.008;6.754;2022-07-24T03:29:42;10.48;;;7.68;;
62006;SDS011;47963;53.008;6.754;2022-07-24T03:32:07;12.88;;;8.27;;
62006;SDS011;47963;53.008;6.754;2022-07-24T03:34:33;10.73;;;7.75;;
62006;SDS011;47963;53.008;6.754;2022-07-24T03:36:58;12.57;;;7.65;;
62006;SDS011;47963;53.008;6.754;2022-07-24T03:39:24;11.77;;;8.25;;
62006;SDS011;47963;53.008;6.754;2022-07-24T03:41:50;11.45;;;7.60;;
62006;SDS011;47963;53.008;6.754;2022-07-24T03:44:15;11.43;;;8.18;;
62006;SDS011;47963;53.008;6.754;2022-07-24T03:46:41;15.15;;;8.70;;
62006;SDS011;47963;53.008;6.754;2022-07-24T03:49:07;12.05;;;8.80;;
62006;SDS011;47963;53.008;6.754;2022-07-24T03:51:32;11.40;;;8.20;;
62006;SDS011;47963;53.008;6.754;2022-07-24T03:54:00;12.55;;;8.57;;
62006;SDS011;47963;53.008;6.754;2022-07-24T03:56:27;13.13;;;9.00;;
62006;SDS011;47963;53.008;6.754;2022-07-24T03:58:53;10.65;;;8.00;;
62006;SDS011;47963;53.008;6.754;2022-07-24T04:01:19;10.52;;;8.15;;
62006;SDS011;47963;53.008;6.754;2022-07-24T04:03:45;13.40;;;8.18;;
62006;SDS011;47963;53.008;6.754;2022-07-24T04:06:11;10.30;;;7.85;;
62006;SDS011;47963;53.008;6.754;2022-07-24T04:08:36;11.18;;;7.90;;
62006;SDS011;47963;53.008;6.754;2022-07-24T04:11:02;11.88;;;8.27;;
62006;SDS011;47963;53.008;6.754;2022-07-24T04:13:28;11.45;;;8.52;;
62006;SDS011;47963;53.008;6.754;2022-07-24T04:15:55;11.63;;;8.45;;
62006;SDS011;47963;53.008;6.754;2022-07-24T04:18:22;11.43;;;8.10;;
62006;SDS011;47963;53.008;6.754;2022-07-24T04:20:48;11.85;;;8.38;;
62006;SDS011;47963;53.008;6.754;2022-07-24T04:23:14;11.82;;;8.45;;
62006;SDS011;47963;53.008;6.754;2022-07-24T04:25:41;11.40;;;8.07;;
62006;SDS011;47963;53.008;6.754;2022-07-24T04:28:06;13.88;;;8.77;;
62006;SDS011;47963;53.008;6.754;2022-07-24T04:30:32;13.93;;;8.60;;
62006;SDS011;47963;53.008;6.754;2022-07-24T04:32:58;11.23;;;8.48;;
62006;SDS011;47963;53.008;6.754;2022-07-24T04:35:23;12.63;;;8.60;;
62006;SDS011;47963;53.008;6.754;2022-07-24T04:37:49;13.27;;;8.15;;
62006;SDS011;47963;53.008;6.754;2022-07-24T04:40:15;11.63;;;7.97;;
62006;SDS011;47963;53.008;6.754;2022-07-24T04:42:41;12.13;;;8.32;;
62006;SDS011;47963;53.008;6.754;2022-07-24T04:45:07;12.15;;;8.60;;
62006;SDS011;47963;53.008;6.754;2022-07-24T04:47:34;11.90;;;8.05;;
62006;SDS011;47963;53.008;6.754;2022-07-24T04:50:01;12.52;;;8.10;;
62006;SDS011;47963;53.008;6.754;2022-07-24T04:52:27;11.60;;;8.05;;
62006;SDS011;47963;53.008;6.754;2022-07-24T04:54:53;12.10;;;8.20;;
62006;SDS011;47963;53.008;6.754;2022-07-24T04:57:19;11.07;;;7.82;;
62006;SDS011;47963;53.008;6.754;2022-07-24T04:59:44;11.10;;;7.82;;
62006;SDS011;47963;53.008;6.754;2022-07-24T05:02:10;11.07;;;7.60;;
62006;SDS011;47963;53.008;6.754;2022-07-24T05:04:36;11.50;;;8.00;;
62006;SDS011;47963;53.008;6.754;2022-07-24T05:07:02;13.23;;;7.63;;
62006;SDS011;47963;53.008;6.754;2022-07-24T05:09:28;12.80;;;8.00;;
62006;SDS011;47963;53.008;6.754;2022-07-24T05:11:53;11.50;;;7.88;;
62006;SDS011;47963;53.008;6.754;2022-07-24T05:14:19;11.68;;;8.13;;
62006;SDS011;47963;53.008;6.754;2022-07-24T05:16:45;11.63;;;8.57;;
62006;SDS011;47963;53.008;6.754;2022-07-24T05:19:11;10.13;;;8.02;;
62006;SDS011;47963;53.008;6.754;2022-07-24T05:21:36;11.73;;;8.25;;
62006;SDS011;47963;53.008;6.754;2022-07-24T05:24:03;12.20;;;8.63;;
62006;SDS011;47963;53.008;6.754;2022-07-24T05:26:29;10.70;;;8.07;;
62006;SDS011;47963;53.008;6.754;2022-07-24T05:28:57;11.23;;;8.25;;
62006;SDS011;47963;53.008;6.754;2022-07-24T05:31:23;11.48;;;8.07;;
62006;SDS011;47963;53.008;6.754;2022-07-24T05:33:49;12.15;;;8.40;;
62006;SDS011;47963;53.008;6.754;2022-07-24T05:36:15;11.52;;;8.70;;
62006;SDS011;47963;53.008;6.754;2022-07-24T05:38:40;12.50;;;8.50;;
62006;SDS011;47963;53.008;6.754;2022-07-24T05:41:06;11.25;;;8.57;;
62006;SDS011;47963;53.008;6.754;2022-07-24T05:43:32;13.32;;;9.02;;
62006;SDS011;47963;53.008;6.754;2022-07-24T05:45:57;13.40;;;9.75;;
62006;SDS011;47963;53.008;6.754;2022-07-24T05:48:23;13.68;;;9.30;;
62006;SDS011;47963;53.008;6.754;2022-07-24T05:50:49;13.30;;;9.90;;
62006;SDS011;47963;53.008;6.754;2022-07-24T05:53:14;13.90;;;9.93;;
62006;SDS011;47963;53.008;6.754;2022-07-24T05:55:40;14.50;;;9.90;;
62006;SDS011;47963;53.008;6.754;2022-07-24T05:58:06;13.10;;;9.68;;
62006;SDS011;47963;53.008;6.754;2022-07-24T06:00:31;12.18;;;9.90;;
62006;SDS011;47963;53.008;6.754;2022-07-24T06:02:57;14.20;;;10.20;;
62006;SDS011;47963;53.008;6.754;2022-07-24T06:05:22;14.32;;;11.05;;
62006;SDS011;47963;53.008;6.754;2022-07-24T06:07:48;13.77;;;10.05;;
62006;SDS011;47963;53.008;6.754;2022-07-24T06:10:14;16.33;;;11.07;;
62006;SDS011;47963;53.008;6.754;2022-07-24T06:12:39;14.10;;;11.15;;
62006;SDS011;47963;53.008;6.754;2022-07-24T06:15:05;15.05;;;11.25;;
62006;SDS011;47963;53.008;6.754;2022-07-24T06:17:31;14.68;;;12.05;;
62006;SDS011;47963;53.008;6.754;2022-07-24T06:19:57;18.27;;;12.50;;
62006;SDS011;47963;53.008;6.754;2022-07-24T06:22:23;15.32;;;12.25;;
62006;SDS011;47963;53.008;6.754;2022-07-24T06:24:48;18.35;;;12.82;;
62006;SDS011;47963;53.008;6.754;2022-07-24T06:27:14;17.63;;;13.93;;
62006;SDS011;47963;53.008;6.754;2022-07-24T06:29:39;17.45;;;13.38;;
62006;SDS011;47963;53.008;6.754;2022-07-24T06:32:05;16.27;;;14.02;;
62006;SDS011;47963;53.008;6.754;2022-07-24T06:34:31;17.02;;;13.52;;
62006;SDS011;47963;53.008;6.754;2022-07-24T06:36:57;15.52;;;13.57;;
62006;SDS011;47963;53.008;6.754;2022-07-24T06:39:22;15.73;;;13.60;;
62006;SDS011;47963;53.008;6.754;2022-07-24T06:41:48;19.55;;;14.77;;
62006;SDS011;47963;53.008;6.754;2022-07-24T06:44:14;19.88;;;15.38;;
62006;SDS011;47963;53.008;6.754;2022-07-24T06:46:39;19.67;;;14.77;;
62006;SDS011;47963;53.008;6.754;2022-07-24T06:49:05;18.17;;;15.88;;
62006;SDS011;47963;53.008;6.754;2022-07-24T06:51:31;17.73;;;15.70;;
62006;SDS011;47963;53.008;6.754;2022-07-24T06:53:56;18.63;;;15.27;;
62006;SDS011;47963;53.008;6.754;2022-07-24T06:56:22;19.50;;;16.52;;
62006;SDS011;47963;53.008;6.754;2022-07-24T06:58:47;19.15;;;16.73;;
62006;SDS011;47963;53.008;6.754;2022-07-24T07:01:13;22.25;;;17.05;;
62006;SDS011;47963;53.008;6.754;2022-07-24T07:03:38;19.50;;;16.63;;
62006;SDS011;47963;53.008;6.754;2022-07-24T07:06:04;19.63;;;16.70;;
62006;SDS011;47963;53.008;6.754;2022-07-24T07:08:30;21.92;;;17.85;;
62006;SDS011;47963;53.008;6.754;2022-07-24T07:10:56;17.88;;;15.88;;
62006;SDS011;47963;53.008;6.754;2022-07-24T07:13:21;19.73;;;17.63;;
62006;SDS011;47963;53.008;6.754;2022-07-24T07:15:47;22.55;;;17.67;;
62006;SDS011;47963;53.008;6.754;2022-07-24T07:18:13;24.05;;;18.20;;
62006;SDS011;47963;53.008;6.754;2022-07-24T07:20:39;19.55;;;16.98;;
62006;SDS011;47963;53.008;6.754;2022-07-24T07:23:05;22.45;;;17.83;;
62006;SDS011;47963;53.008;6.754;2022-07-24T07:25:31;22.23;;;18.00;;
62006;SDS011;47963;53.008;6.754;2022-07-24T07:27:57;22.15;;;18.90;;
62006;SDS011;47963;53.008;6.754;2022-07-24T07:30:22;24.73;;;19.38;;
62006;SDS011;47963;53.008;6.754;2022-07-24T07:32:48;23.80;;;18.90;;
62006;SDS011;47963;53.008;6.754;2022-07-24T07:35:14;23.13;;;19.63;;
62006;SDS011;47963;53.008;6.754;2022-07-24T07:37:39;23.23;;;19.00;;
62006;SDS011;47963;53.008;6.754;2022-07-24T07:40:05;22.38;;;17.33;;
62006;SDS011;47963;53.008;6.754;2022-07-24T07:42:31;22.42;;;18.63;;
62006;SDS011;47963;53.008;6.754;2022-07-24T07:44:57;21.25;;;16.73;;
62006;SDS011;47963;53.008;6.754;2022-07-24T07:47:22;21.60;;;18.02;;
62006;SDS011;47963;53.008;6.754;2022-07-24T07:49:48;21.85;;;18.23;;
62006;SDS011;47963;53.008;6.754;2022-07-24T07:52:14;21.05;;;18.20;;
62006;SDS011;47963;53.008;6.754;2022-07-24T07:54:39;24.35;;;19.23;;
62006;SDS011;47963;53.008;6.754;2022-07-24T07:57:05;26.80;;;21.48;;
62006;SDS011;47963;53.008;6.754;2022-07-24T07:59:31;24.02;;;19.50;;
62006;SDS011;47963;53.008;6.754;2022-07-24T08:01:56;24.25;;;19.13;;
62006;SDS011;47963;53.008;6.754;2022-07-24T08:04:22;25.13;;;19.60;;
62006;SDS011;47963;53.008;6.754;2022-07-24T08:06:47;23.60;;;18.67;;
62006;SDS011;47963;53.008;6.754;2022-07-24T08:09:13;23.40;;;19.27;;
62006;SDS011;47963;53.008;6.754;2022-07-24T08:11:39;22.85;;;17.90;;
62006;SDS011;47963;53.008;6.754;2022-07-24T08:14:04;22.42;;;18.40;;
62006;SDS011;47963;53.008;6.754;2022-07-24T08:16:30;22.23;;;17.92;;
62006;SDS011;47963;53.008;6.754;2022-07-24T08:18:56;20.75;;;16.15;;
62006;SDS011;47963;53.008;6.754;2022-07-24T08:21:21;22.65;;;17.25;;
62006;SDS011;47963;53.008;6.754;2022-07-24T08:23:47;21.60;;;16.85;;
62006;SDS011;47963;53.008;6.754;2022-07-24T08:26:14;18.55;;;14.63;;
62006;SDS011;47963;53.008;6.754;2022-07-24T08:28:39;18.13;;;13.73;;
62006;SDS011;47963;53.008;6.754;2022-07-24T08:31:05;19.80;;;12.30;;
62006;SDS011;47963;53.008;6.754;2022-07-24T08:33:31;13.23;;;9.35;;
62006;SDS011;47963;53.008;6.754;2022-07-24T08:35:57;12.55;;;8.25;;
62006;SDS011;47963;53.008;6.754;2022-07-24T08:38:22;11.10;;;7.70;;
62006;SDS011;47963;53.008;6.754;2022-07-24T08:40:48;14.43;;;7.82;;
62006;SDS011;47963;53.008;6.754;2022-07-24T08:43:15;12.88;;;7.47;;
62006;SDS011;47963;53.008;6.754;2022-07-24T08:45:41;12.15;;;7.47;;
62006;SDS011;47963;53.008;6.754;2022-07-24T08:48:09;13.40;;;7.28;;
62006;SDS011;47963;53.008;6.754;2022-07-24T08:50:36;11.27;;;7.68;;
62006;SDS011;47963;53.008;6.754;2022-07-24T08:53:04;11.38;;;7.43;;
62006;SDS011;47963;53.008;6.754;2022-07-24T08:55:30;11.10;;;7.45;;
62006;SDS011;47963;53.008;6.754;2022-07-24T08:57:56;10.82;;;7.28;;
62006;SDS011;47963;53.008;6.754;2022-07-24T09:00:24;9.57;;;5.80;;
62006;SDS011;47963;53.008;6.754;2022-07-24T09:02:50;9.05;;;5.88;;
62006;SDS011;47963;53.008;6.754;2022-07-24T09:05:16;7.95;;;5.20;;
62006;SDS011;47963;53.008;6.754;2022-07-24T09:07:41;10.45;;;5.70;;
62006;SDS011;47963;53.008;6.754;2022-07-24T09:10:08;9.50;;;5.55;;
62006;SDS011;47963;53.008;6.754;2022-07-24T09:12:37;9.25;;;5.80;;
62006;SDS011;47963;53.008;6.754;2022-07-24T09:20:14;9.20;;;5.13;;
62006;SDS011;47963;53.008;6.754;2022-07-24T09:22:40;10.27;;;5.53;;
62006;SDS011;47963;53.008;6.754;2022-07-24T09:27:37;8.82;;;5.20;;
62006;SDS011;47963;53.008;6.754;2022-07-24T09:30:05;8.80;;;5.57;;
62006;SDS011;47963;53.008;6.754;2022-07-24T09:32:31;9.32;;;4.80;;
62006;SDS011;47963;53.008;6.754;2022-07-24T09:34:57;8.75;;;5.40;;
62006;SDS011;47963;53.008;6.754;2022-07-24T09:37:25;8.57;;;5.10;;
62006;SDS011;47963;53.008;6.754;2022-07-24T09:39:52;8.82;;;4.93;;
62006;SDS011;47963;53.008;6.754;2022-07-24T09:42:30;9.20;;;4.97;;
62006;SDS011;47963;53.008;6.754;2022-07-24T09:44:57;8.68;;;4.68;;
62006;SDS011;47963;53.008;6.754;2022-07-24T09:47:24;9.85;;;4.65;;
62006;SDS011;47963;53.008;6.754;2022-07-24T09:49:50;7.72;;;4.88;;
62006;SDS011;47963;53.008;6.754;2022-07-24T09:52:34;8.25;;;4.68;;
62006;SDS011;47963;53.008;6.754;2022-07-24T09:55:02;8.52;;;4.70;;
62006;SDS011;47963;53.008;6.754;2022-07-24T09:57:28;7.63;;;4.63;;
62006;SDS011;47963;53.008;6.754;2022-07-24T09:59:56;7.50;;;4.65;;
62006;SDS011;47963;53.008;6.754;2022-07-24T10:02:25;8.02;;;4.68;;
62006;SDS011;47963;53.008;6.754;2022-07-24T10:04:52;9.88;;;4.82;;
62006;SDS011;47963;53.008;6.754;2022-07-24T10:07:19;8.13;;;4.90;;
62006;SDS011;47963;53.008;6.754;2022-07-24T10:09:47;8.82;;;5.00;;
62006;SDS011;47963;53.008;6.754;2022-07-24T10:12:19;8.05;;;4.97;;
62006;SDS011;47963;53.008;6.754;2022-07-24T10:14:49;7.60;;;4.80;;
62006;SDS011;47963;53.008;6.754;2022-07-24T10:17:17;8.02;;;4.78;;
62006;SDS011;47963;53.008;6.754;2022-07-24T10:19:44;7.72;;;4.35;;
62006;SDS011;47963;53.008;6.754;2022-07-24T10:22:16;8.15;;;4.60;;
62006;SDS011;47963;53.008;6.754;2022-07-24T10:27:41;9.65;;;4.60;;
62006;SDS011;47963;53.008;6.754;2022-07-24T10:30:13;9.05;;;4.53;;
62006;SDS011;47963;53.008;6.754;2022-07-24T10:32:39;8.43;;;4.53;;
62006;SDS011;47963;53.008;6.754;2022-07-24T10:40:30;10.30;;;4.90;;
62006;SDS011;47963;53.008;6.754;2022-07-24T10:45:30;9.15;;;4.63;;
62006;SDS011;47963;53.008;6.754;2022-07-24T10:48:44;8.40;;;4.97;;
62006;SDS011;47963;53.008;6.754;2022-07-24T10:51:18;8.02;;;4.45;;
62006;SDS011;47963;53.008;6.754;2022-07-24T10:53:49;7.75;;;4.53;;
62006;SDS011;47963;53.008;6.754;2022-07-24T11:12:31;7.85;;;4.65;;
62006;SDS011;47963;53.008;6.754;2022-07-24T11:14:58;9.25;;;4.90;;
62006;SDS011;47963;53.008;6.754;2022-07-24T11:17:45;6.90;;;4.20;;
62006;SDS011;47963;53.008;6.754;2022-07-24T11:20:16;8.25;;;4.32;;
62006;SDS011;47963;53.008;6.754;2022-07-24T11:22:47;9.15;;;4.80;;
62006;SDS011;47963;53.008;6.754;2022-07-24T11:27:48;8.18;;;4.47;;
62006;SDS011;47963;53.008;6.754;2022-07-24T11:30:22;8.30;;;4.43;;
62006;SDS011;47963;53.008;6.754;2022-07-24T11:32:53;7.72;;;4.15;;
62006;SDS011;47963;53.008;6.754;2022-07-24T11:35:29;8.57;;;4.43;;
62006;SDS011;47963;53.008;6.754;2022-07-24T11:38:00;7.93;;;4.55;;
62006;SDS011;47963;53.008;6.754;2022-07-24T11:40:28;8.45;;;4.30;;
62006;SDS011;47963;53.008;6.754;2022-07-24T11:42:56;8.05;;;4.38;;
62006;SDS011;47963;53.008;6.754;2022-07-24T11:45:27;7.32;;;4.55;;
62006;SDS011;47963;53.008;6.754;2022-07-24T11:47:53;7.95;;;4.50;;
62006;SDS011;47963;53.008;6.754;2022-07-24T11:50:24;7.35;;;4.40;;
62006;SDS011;47963;53.008;6.754;2022-07-24T11:52:51;7.63;;;4.20;;
62006;SDS011;47963;53.008;6.754;2022-07-24T11:55:19;8.68;;;4.05;;
62006;SDS011;47963;53.008;6.754;2022-07-24T11:57:51;7.32;;;3.80;;
62006;SDS011;47963;53.008;6.754;2022-07-24T12:00:19;6.88;;;3.90;;
62006;SDS011;47963;53.008;6.754;2022-07-24T12:02:48;7.25;;;3.88;;
62006;SDS011;47963;53.008;6.754;2022-07-24T12:05:28;6.68;;;4.10;;
62006;SDS011;47963;53.008;6.754;2022-07-24T12:07:56;8.85;;;4.18;;
62006;SDS011;47963;53.008;6.754;2022-07-24T12:10:24;7.95;;;4.35;;
62006;SDS011;47963;53.008;6.754;2022-07-24T12:12:51;8.18;;;4.32;;
62006;SDS011;47963;53.008;6.754;2022-07-24T12:15:19;8.68;;;4.20;;
62006;SDS011;47963;53.008;6.754;2022-07-24T12:20:21;8.30;;;3.88;;
62006;SDS011;47963;53.008;6.754;2022-07-24T12:22:48;7.45;;;4.15;;
62006;SDS011;47963;53.008;6.754;2022-07-24T12:25:13;7.35;;;3.80;;
62006;SDS011;47963;53.008;6.754;2022-07-24T12:27:41;8.05;;;4.00;;
62006;SDS011;47963;53.008;6.754;2022-07-24T12:30:18;8.75;;;3.95;;
62006;SDS011;47963;53.008;6.754;2022-07-24T12:32:54;9.10;;;4.10;;
62006;SDS011;47963;53.008;6.754;2022-07-24T12:41:09;6.85;;;3.70;;
62006;SDS011;47963;53.008;6.754;2022-07-24T12:43:50;7.53;;;4.00;;
62006;SDS011;47963;53.008;6.754;2022-07-24T12:46:33;7.40;;;4.43;;
62006;SDS011;47963;53.008;6.754;2022-07-24T12:49:03;7.43;;;4.10;;
62006;SDS011;47963;53.008;6.754;2022-07-24T12:54:29;7.68;;;4.30;;
62006;SDS011;47963;53.008;6.754;2022-07-24T12:56:56;8.38;;;4.05;;
62006;SDS011;47963;53.008;6.754;2022-07-24T13:01:58;7.40;;;4.25;;
62006;SDS011;47963;53.008;6.754;2022-07-24T13:04:27;6.95;;;3.80;;
62006;SDS011;47963;53.008;6.754;2022-07-24T13:06:59;7.60;;;4.03;;
62006;SDS011;47963;53.008;6.754;2022-07-24T13:11:52;8.05;;;4.18;;
62006;SDS011;47963;53.008;6.754;2022-07-24T13:14:20;9.07;;;4.30;;
62006;SDS011;47963;53.008;6.754;2022-07-24T13:16:48;8.25;;;4.28;;
62006;SDS011;47963;53.008;6.754;2022-07-24T13:19:14;8.32;;;4.30;;
62006;SDS011;47963;53.008;6.754;2022-07-24T13:21:41;8.25;;;4.22;;
62006;SDS011;47963;53.008;6.754;2022-07-24T13:24:09;7.13;;;4.38;;
62006;SDS011;47963;53.008;6.754;2022-07-24T13:26:37;8.15;;;4.15;;
62006;SDS011;47963;53.008;6.754;2022-07-24T13:29:03;6.72;;;3.75;;
62006;SDS011;47963;53.008;6.754;2022-07-24T13:31:30;7.07;;;3.92;;
62006;SDS011;47963;53.008;6.754;2022-07-24T13:33:56;8.98;;;4.03;;
62006;SDS011;47963;53.008;6.754;2022-07-24T13:36:21;7.90;;;4.20;;
62006;SDS011;47963;53.008;6.754;2022-07-24T13:38:47;9.30;;;4.32;;
62006;SDS011;47963;53.008;6.754;2022-07-24T13:41:13;7.43;;;4.22;;
62006;SDS011;47963;53.008;6.754;2022-07-24T13:43:39;9.73;;;3.95;;
62006;SDS011;47963;53.008;6.754;2022-07-24T13:46:05;6.80;;;3.80;;
62006;SDS011;47963;53.008;6.754;2022-07-24T13:48:31;7.97;;;4.38;;
62006;SDS011;47963;53.008;6.754;2022-07-24T13:50:57;8.13;;;4.13;;
62006;SDS011;47963;53.008;6.754;2022-07-24T13:53:23;8.02;;;3.88;;
62006;SDS011;47963;53.008;6.754;2022-07-24T13:55:49;7.32;;;3.75;;
62006;SDS011;47963;53.008;6.754;2022-07-24T13:58:15;7.53;;;4.10;;
62006;SDS011;47963;53.008;6.754;2022-07-24T14:00:40;7.90;;;4.32;;
62006;SDS011;47963;53.008;6.754;2022-07-24T14:03:06;7.82;;;4.13;;
62006;SDS011;47963;53.008;6.754;2022-07-24T14:05:32;7.80;;;3.90;;
62006;SDS011;47963;53.008;6.754;2022-07-24T14:07:58;8.60;;;4.28;;
62006;SDS011;47963;53.008;6.754;2022-07-24T14:10:23;7.57;;;3.80;;
62006;SDS011;47963;53.008;6.754;2022-07-24T14:12:50;8.60;;;4.07;;
62006;SDS011;47963;53.008;6.754;2022-07-24T14:15:15;7.53;;;4.00;;
62006;SDS011;47963;53.008;6.754;2022-07-24T14:17:41;7.22;;;3.78;;
62006;SDS011;47963;53.008;6.754;2022-07-24T14:20:08;9.00;;;3.83;;
62006;SDS011;47963;53.008;6.754;2022-07-24T14:22:36;6.72;;;3.80;;
62006;SDS011;47963;53.008;6.754;2022-07-24T14:25:03;7.15;;;3.70;;
62006;SDS011;47963;53.008;6.754;2022-07-24T14:27:30;7.45;;;3.88;;
62006;SDS011;47963;53.008;6.754;2022-07-24T14:29:56;7.30;;;4.05;;
62006;SDS011;47963;53.008;6.754;2022-07-24T14:32:22;7.35;;;4.00;;
62006;SDS011;47963;53.008;6.754;2022-07-24T14:34:48;7.90;;;4.10;;
62006;SDS011;47963;53.008;6.754;2022-07-24T14:37:14;9.20;;;4.07;;
62006;SDS011;47963;53.008;6.754;2022-07-24T14:39:40;7.75;;;3.92;;
62006;SDS011;47963;53.008;6.754;2022-07-24T14:42:05;8.50;;;4.20;;
62006;SDS011;47963;53.008;6.754;2022-07-24T14:44:31;7.68;;;4.10;;
62006;SDS011;47963;53.008;6.754;2022-07-24T14:46:57;7.43;;;3.78;;
62006;SDS011;47963;53.008;6.754;2022-07-24T14:49:25;8.43;;;3.97;;
62006;SDS011;47963;53.008;6.754;2022-07-24T14:51:52;6.57;;;3.55;;
62006;SDS011;47963;53.008;6.754;2022-07-24T14:54:18;7.32;;;4.15;;
62006;SDS011;47963;53.008;6.754;2022-07-24T14:56:44;6.43;;;3.80;;
62006;SDS011;47963;53.008;6.754;2022-07-24T14:59:09;7.07;;;3.85;;
62006;SDS011;47963;53.008;6.754;2022-07-24T15:01:35;7.55;;;4.13;;
62006;SDS011;47963;53.008;6.754;2022-07-24T15:04:01;7.95;;;3.80;;
62006;SDS011;47963;53.008;6.754;2022-07-24T15:06:27;7.28;;;3.63;;
62006;SDS011;47963;53.008;6.754;2022-07-24T15:08:54;9.13;;;4.45;;
62006;SDS011;47963;53.008;6.754;2022-07-24T15:11:20;6.88;;;3.83;;
62006;SDS011;47963;53.008;6.754;2022-07-24T15:13:49;6.63;;;3.92;;
62006;SDS011;47963;53.008;6.754;2022-07-24T15:16:15;6.70;;;3.97;;
62006;SDS011;47963;53.008;6.754;2022-07-24T15:18:40;7.18;;;4.10;;
62006;SDS011;47963;53.008;6.754;2022-07-24T15:21:06;7.53;;;4.05;;
62006;SDS011;47963;53.008;6.754;2022-07-24T15:23:32;7.13;;;3.88;;
62006;SDS011;47963;53.008;6.754;2022-07-24T15:25:58;7.43;;;4.10;;
62006;SDS011;47963;53.008;6.754;2022-07-24T15:28:24;7.35;;;4.10;;